createdAt,value
2018-09-25T00:00:45.716Z,74.10
2018-09-25T00:02:54.523Z,74.40
2018-09-25T00:05:04.861Z,73.80
2018-09-25T00:07:13.554Z,72.60
2018-09-25T00:09:22.347Z,75.00
2018-09-25T00:11:31.329Z,74.30
2018-09-25T00:13:40.021Z,75.40
2018-09-25T00:15:48.827Z,73.90
2018-09-25T00:17:58.065Z,74.40
2018-09-25T00:20:06.916Z,74.60
2018-09-25T00:22:15.677Z,75.00
2018-09-25T00:24:24.483Z,73.80
2018-09-25T00:26:34.755Z,74.70
2018-09-25T00:28:43.484Z,74.60
2018-09-25T00:30:52.249Z,74.90
2018-09-25T00:33:00.991Z,75.20
2018-09-25T00:35:09.671Z,75.50
2018-09-25T00:37:18.363Z,74.70
2018-09-25T00:39:27.203Z,75.90
2018-09-25T00:41:35.836Z,75.60
2018-09-25T00:43:44.643Z,75.80
2018-09-25T00:45:53.410Z,74.90
2018-09-25T00:48:02.274Z,75.80
2018-09-25T00:50:11.231Z,75.40
2018-09-25T00:52:19.944Z,75.60
2018-09-25T00:54:28.793Z,75.60
2018-09-25T00:56:37.472Z,76.00
2018-09-25T00:58:46.335Z,76.00
2018-09-25T01:00:54.984Z,76.20
2018-09-25T01:03:05.482Z,76.30
2018-09-25T01:05:14.215Z,76.20
2018-09-25T01:07:23.009Z,76.20
2018-09-25T01:09:31.751Z,76.10
2018-09-25T01:11:40.625Z,76.70
2018-09-25T01:13:49.489Z,76.10
2018-09-25T01:15:58.598Z,76.30
2018-09-25T01:18:07.558Z,77.20
2018-09-25T01:20:16.305Z,76.60
2018-09-25T01:22:25.280Z,76.50
2018-09-25T01:24:35.233Z,77.70
2018-09-25T01:26:44.043Z,77.10
2018-09-25T01:28:52.914Z,77.50
2018-09-25T01:31:01.739Z,77.10
2018-09-25T01:33:10.884Z,77.00
2018-09-25T01:35:19.741Z,76.50
2018-09-25T01:37:28.556Z,77.30
2018-09-25T01:39:37.344Z,77.30
2018-09-25T01:41:46.040Z,77.00
2018-09-25T01:43:54.827Z,77.30
2018-09-25T01:46:05.116Z,77.30
2018-09-25T01:48:13.896Z,77.90
2018-09-25T01:50:22.570Z,77.40
2018-09-25T01:52:31.456Z,76.90
2018-09-25T01:54:40.239Z,78.00
2018-09-25T01:56:49.129Z,76.40
2018-09-25T01:58:58.064Z,76.40
2018-09-25T02:01:06.820Z,76.60
2018-09-25T02:03:15.643Z,76.00
2018-09-25T02:05:24.488Z,76.10
2018-09-25T02:07:35.232Z,76.10
2018-09-25T02:09:44.088Z,76.10
2018-09-25T02:11:52.752Z,76.80
2018-09-25T02:14:01.549Z,77.00
2018-09-25T02:16:10.681Z,76.80
2018-09-25T02:18:19.502Z,77.80
2018-09-25T02:20:28.177Z,76.90
2018-09-25T02:22:36.914Z,77.10
2018-09-25T02:24:45.763Z,77.20
2018-09-25T02:26:54.568Z,76.20
2018-09-25T02:29:05.035Z,76.10
2018-09-25T02:31:13.999Z,76.80
2018-09-25T02:33:22.779Z,77.50
2018-09-25T02:35:31.520Z,77.20
2018-09-25T02:37:40.381Z,77.30
2018-09-25T02:39:49.229Z,78.20
2018-09-25T02:41:57.825Z,77.70
2018-09-25T02:44:07.094Z,77.40
2018-09-25T02:46:15.805Z,77.50
2018-09-25T02:48:24.660Z,77.50
2018-09-25T02:50:35.001Z,77.70
2018-09-25T02:52:43.836Z,78.00
2018-09-25T02:54:52.722Z,78.90
2018-09-25T02:57:01.485Z,78.20
2018-09-25T02:59:10.364Z,79.30
2018-09-25T03:01:19.316Z,78.90
2018-09-25T03:03:28.085Z,79.00
2018-09-25T03:05:36.979Z,79.20
2018-09-25T03:07:45.893Z,78.40
2018-09-25T03:09:54.870Z,78.20
2018-09-25T03:12:05.128Z,78.20
2018-09-25T03:14:13.957Z,78.40
2018-09-25T03:16:22.664Z,77.70
2018-09-25T03:18:31.513Z,77.40
2018-09-25T03:20:40.428Z,76.80
2018-09-25T03:22:49.160Z,77.50
2018-09-25T03:24:58.027Z,76.90
2018-09-25T03:27:06.850Z,78.10
2018-09-25T03:29:15.744Z,77.80
2018-09-25T03:31:24.618Z,78.70
2018-09-25T03:33:34.887Z,77.30
2018-09-25T03:35:43.739Z,78.20
2018-09-25T03:37:52.514Z,78.20
2018-09-25T03:40:01.340Z,79.10
2018-09-25T03:42:10.256Z,78.80
2018-09-25T03:44:19.092Z,78.80
2018-09-25T03:46:28.552Z,79.60
2018-09-25T03:48:37.447Z,79.70
2018-09-25T03:50:46.233Z,80.50
2018-09-25T03:52:55.064Z,79.30
2018-09-25T03:55:05.583Z,79.70
2018-09-25T03:57:14.347Z,79.80
2018-09-25T03:59:23.195Z,80.10
2018-09-25T04:01:32.049Z,79.30
2018-09-25T04:03:40.794Z,80.00
2018-09-25T04:05:49.836Z,79.90
2018-09-25T04:07:58.536Z,79.70
2018-09-25T04:10:07.329Z,80.10
2018-09-25T04:12:16.111Z,80.40
2018-09-25T04:14:24.799Z,80.40
2018-09-25T04:16:35.224Z,80.70
2018-09-25T04:18:44.105Z,80.90
2018-09-25T04:20:53.099Z,80.70
2018-09-25T04:23:01.944Z,80.30
2018-09-25T04:25:10.853Z,80.10
2018-09-25T04:27:19.749Z,80.30
2018-09-25T04:29:28.464Z,80.60
2018-09-25T04:31:37.370Z,81.40
2018-09-25T04:33:46.008Z,80.90
2018-09-25T04:35:54.660Z,80.90
2018-09-25T04:38:04.930Z,80.90
2018-09-25T04:40:13.754Z,81.20
2018-09-25T04:42:22.567Z,80.60
2018-09-25T04:44:31.278Z,80.90
2018-09-25T04:46:40.139Z,81.00
2018-09-25T04:48:48.962Z,81.50
2018-09-25T04:50:57.859Z,81.30
2018-09-25T04:53:06.898Z,81.10
2018-09-25T04:55:15.561Z,80.10
2018-09-25T04:57:24.228Z,79.70
2018-09-25T04:59:34.776Z,80.60
2018-09-25T05:01:43.494Z,80.20
2018-09-25T05:03:52.160Z,80.80
2018-09-25T05:06:00.925Z,81.00
2018-09-25T05:08:09.639Z,80.60
2018-09-25T05:10:18.363Z,79.80
2018-09-25T05:12:27.071Z,79.20
2018-09-25T05:14:36.006Z,79.00
2018-09-25T05:16:44.813Z,80.00
2018-09-25T05:18:53.514Z,80.00
2018-09-25T05:21:02.358Z,80.20
2018-09-25T05:23:11.292Z,79.70
2018-09-25T05:25:20.103Z,79.90
2018-09-25T05:27:29.096Z,80.20
2018-09-25T05:29:37.949Z,80.50
2018-09-25T05:31:46.701Z,80.30
2018-09-25T05:33:55.354Z,80.20
2018-09-25T05:36:05.479Z,80.50
2018-09-25T05:38:14.320Z,80.60
2018-09-25T05:40:22.991Z,80.10
2018-09-25T05:42:31.716Z,80.40
2018-09-25T05:44:40.576Z,80.90
2018-09-25T05:46:49.356Z,81.20
2018-09-25T05:48:58.338Z,80.60
2018-09-25T05:51:07.128Z,80.70
2018-09-25T05:53:15.843Z,81.60
2018-09-25T05:55:24.776Z,81.50
2018-09-25T05:57:35.369Z,81.80
2018-09-25T05:59:44.215Z,81.70
2018-09-25T06:01:53.068Z,81.90
2018-09-25T06:04:01.877Z,82.10
2018-09-25T06:06:10.643Z,82.30
2018-09-25T06:08:19.450Z,82.10
2018-09-25T06:10:28.252Z,82.30
2018-09-25T06:12:36.955Z,81.30
2018-09-25T06:14:45.705Z,82.00
2018-09-25T06:16:54.452Z,81.50
2018-09-25T06:19:03.707Z,81.80
2018-09-25T06:21:12.533Z,81.60
2018-09-25T06:23:21.320Z,81.60
2018-09-25T06:25:30.276Z,81.50
2018-09-25T06:27:39.194Z,81.40
2018-09-25T06:29:48.143Z,81.20
2018-09-25T06:31:57.248Z,81.30
2018-09-25T06:34:05.983Z,81.20
2018-09-25T06:36:14.748Z,80.70
2018-09-25T06:38:23.607Z,80.60
2018-09-25T06:40:32.386Z,80.70
2018-09-25T06:42:41.331Z,80.50
2018-09-25T06:44:50.203Z,80.30
2018-09-25T06:46:58.897Z,80.00
2018-09-25T06:49:07.628Z,80.00
2018-09-25T06:51:16.287Z,80.10
2018-09-25T06:53:25.075Z,79.20
2018-09-25T06:55:35.537Z,79.10
2018-09-25T06:57:44.236Z,79.10
2018-09-25T06:59:52.980Z,77.90
2018-09-25T07:02:02.149Z,78.50
2018-09-25T07:04:10.896Z,78.50
2018-09-25T07:06:19.733Z,76.30
2018-09-25T07:08:28.616Z,76.40
2018-09-25T07:10:37.384Z,76.00
2018-09-25T07:12:46.185Z,74.60
2018-09-25T07:14:54.993Z,75.40
2018-09-25T07:17:05.202Z,75.60
2018-09-25T07:19:14.267Z,73.20
2018-09-25T07:21:23.027Z,73.70
2018-09-25T07:23:31.782Z,74.60
2018-09-25T07:25:40.861Z,73.10
2018-09-25T07:27:49.694Z,72.40
2018-09-25T07:29:58.494Z,72.20
2018-09-25T07:32:07.335Z,70.70
2018-09-25T07:34:16.045Z,70.20
2018-09-25T07:36:24.954Z,71.00
2018-09-25T07:38:35.803Z,69.30
2018-09-25T07:40:44.543Z,68.70
2018-09-25T07:42:53.220Z,69.70
2018-09-25T07:45:02.045Z,69.80
2018-09-25T07:47:10.867Z,68.70
2018-09-25T07:49:19.544Z,68.10
2018-09-25T07:51:28.335Z,67.50
2018-09-25T07:53:37.116Z,67.20
2018-09-25T07:55:45.920Z,63.00
2018-09-25T07:57:54.729Z,64.50
2018-09-25T08:00:04.808Z,62.30
2018-09-25T08:02:13.568Z,64.30
2018-09-25T08:04:22.433Z,61.70
2018-09-25T08:06:31.290Z,63.60
2018-09-25T08:08:40.045Z,62.00
2018-09-25T08:10:48.804Z,62.10
2018-09-25T08:12:57.604Z,61.20
2018-09-25T08:15:06.485Z,61.00
2018-09-25T08:17:15.342Z,61.30
2018-09-25T08:19:24.412Z,58.10
2018-09-25T08:21:35.203Z,58.50
2018-09-25T08:23:43.953Z,59.80
2018-09-25T08:25:52.801Z,59.40
2018-09-25T08:28:01.538Z,59.60
2018-09-25T08:30:10.891Z,60.90
2018-09-25T08:32:19.533Z,59.60
2018-09-25T08:34:28.657Z,58.20
2018-09-25T08:36:37.391Z,57.40
2018-09-25T08:38:46.211Z,58.10
2018-09-25T08:40:55.244Z,56.00
2018-09-25T08:43:05.361Z,57.70
2018-09-25T08:45:14.134Z,57.90
2018-09-25T08:47:22.956Z,55.70
2018-09-25T08:49:31.692Z,56.50
2018-09-25T08:51:40.535Z,56.70
2018-09-25T08:53:49.335Z,56.90
2018-09-25T08:55:58.221Z,55.00
2018-09-25T08:58:07.067Z,57.30
2018-09-25T09:00:16.104Z,56.40
2018-09-25T09:02:24.811Z,55.70
2018-09-25T09:04:35.165Z,53.80
2018-09-25T09:06:43.948Z,56.00
2018-09-25T09:08:52.751Z,56.20
2018-09-25T09:11:01.394Z,53.10
2018-09-25T09:13:10.228Z,54.60
2018-09-25T09:15:19.005Z,53.90
2018-09-25T09:17:28.269Z,53.50
2018-09-25T09:19:36.982Z,53.50
2018-09-25T09:21:45.788Z,56.80
2018-09-25T09:23:54.716Z,55.10
2018-09-25T09:26:04.919Z,54.00
2018-09-25T09:28:13.860Z,53.30
2018-09-25T09:30:22.683Z,53.00
2018-09-25T09:32:31.577Z,53.50
2018-09-25T09:34:40.251Z,52.20
2018-09-25T09:36:49.076Z,53.50
2018-09-25T09:38:57.847Z,52.00
2018-09-25T09:41:06.757Z,51.60
2018-09-25T09:43:15.493Z,53.00
2018-09-25T09:45:24.199Z,53.90
2018-09-25T09:47:34.277Z,50.80
2018-09-25T09:49:42.956Z,51.30
2018-09-25T09:51:51.716Z,51.80
2018-09-25T09:54:00.624Z,50.10
2018-09-25T09:56:09.336Z,51.30
2018-09-25T09:58:18.176Z,49.60
2018-09-25T10:00:27.120Z,48.80
2018-09-25T10:02:35.883Z,47.70
2018-09-25T10:04:44.635Z,46.80
2018-09-25T10:06:53.484Z,49.40
2018-09-25T10:09:02.096Z,49.80
2018-09-25T10:11:11.118Z,48.40
2018-09-25T10:13:19.818Z,47.00
2018-09-25T10:15:28.596Z,45.70
2018-09-25T10:17:37.325Z,47.80
2018-09-25T10:19:46.076Z,49.00
2018-09-25T10:21:54.760Z,49.70
2018-09-25T10:24:05.220Z,48.10
2018-09-25T10:26:13.982Z,47.40
2018-09-25T10:28:23.184Z,46.00
2018-09-25T10:30:31.927Z,47.40
2018-09-25T10:32:40.756Z,48.10
2018-09-25T10:34:49.652Z,46.40
2018-09-25T10:36:58.397Z,48.60
2018-09-25T10:39:07.193Z,46.80
2018-09-25T10:41:16.328Z,46.10
2018-09-25T10:43:24.903Z,45.20
2018-09-25T10:45:34.330Z,45.20
2018-09-25T10:47:43.232Z,45.80
2018-09-25T10:49:52.039Z,46.20
2018-09-25T10:52:00.757Z,46.70
2018-09-25T10:54:09.524Z,43.60
2018-09-25T10:56:18.375Z,42.40
2018-09-25T10:58:26.888Z,41.20
2018-09-25T11:00:35.564Z,42.60
2018-09-25T11:02:44.242Z,43.70
2018-09-25T11:04:52.862Z,42.80
2018-09-25T11:07:01.992Z,42.80
2018-09-25T11:09:13.793Z,40.80
2018-09-25T11:11:22.595Z,40.30
2018-09-25T11:13:31.470Z,41.00
2018-09-25T11:15:40.273Z,40.00
2018-09-25T11:17:48.941Z,40.10
2018-09-25T11:19:58.592Z,41.70
2018-09-25T11:22:07.421Z,40.70
2018-09-25T11:24:16.097Z,39.20
2018-09-25T11:26:24.767Z,39.70
2018-09-25T11:28:35.296Z,39.60
2018-09-25T11:30:43.936Z,36.80
2018-09-25T11:32:52.524Z,39.70
2018-09-25T11:35:01.181Z,38.90
2018-09-25T11:37:10.016Z,38.80
2018-09-25T11:39:18.744Z,37.20
2018-09-25T11:41:27.702Z,37.00
2018-09-25T11:43:36.436Z,39.10
2018-09-25T11:45:45.113Z,39.00
2018-09-25T11:47:53.952Z,38.30
2018-09-25T11:50:04.588Z,38.40
2018-09-25T11:52:13.508Z,38.90
2018-09-25T11:54:22.276Z,39.30
2018-09-25T11:56:30.943Z,41.10
2018-09-25T11:58:40.179Z,36.90
2018-09-25T12:00:48.788Z,38.00
2018-09-25T12:02:57.436Z,38.30
2018-09-25T12:05:15.166Z,38.10
2018-09-25T12:07:24.016Z,36.10
2018-09-25T12:09:34.437Z,37.10
2018-09-25T12:11:43.279Z,35.10
2018-09-25T12:13:52.201Z,35.90
2018-09-25T12:16:01.064Z,35.10
2018-09-25T12:18:09.753Z,36.50
2018-09-25T12:20:18.527Z,35.00
2018-09-25T12:22:27.384Z,35.10
2018-09-25T12:24:36.493Z,33.70
2018-09-25T12:26:45.355Z,34.10
2018-09-25T12:28:54.028Z,32.30
2018-09-25T12:31:04.179Z,32.80
2018-09-25T12:33:13.101Z,32.20
2018-09-25T12:35:21.954Z,34.70
2018-09-25T12:37:30.853Z,31.70
2018-09-25T12:39:39.565Z,34.30
2018-09-25T12:41:48.233Z,33.10
2018-09-25T12:43:57.032Z,33.50
2018-09-25T12:46:05.804Z,34.30
2018-09-25T12:48:14.688Z,35.30
2018-09-25T12:50:23.427Z,36.40
2018-09-25T12:52:32.202Z,36.20
2018-09-25T12:54:41.157Z,34.70
2018-09-25T12:56:49.866Z,35.30
2018-09-25T12:58:58.456Z,34.60
2018-09-25T13:01:07.344Z,32.50
2018-09-25T13:03:15.938Z,32.80
2018-09-25T13:05:24.745Z,33.30
2018-09-25T13:07:34.862Z,33.80
2018-09-25T13:09:43.593Z,31.70
2018-09-25T13:11:52.290Z,32.40
2018-09-25T13:14:00.957Z,31.60
2018-09-25T13:16:10.012Z,31.80
2018-09-25T13:18:18.699Z,30.50
2018-09-25T13:20:27.620Z,32.70
2018-09-25T13:22:36.476Z,33.10
2018-09-25T13:24:45.298Z,32.30
2018-09-25T13:26:53.979Z,30.50
2018-09-25T13:29:04.232Z,31.40
2018-09-25T13:31:13.178Z,30.40
2018-09-25T13:33:22.503Z,30.90
2018-09-25T13:35:31.775Z,31.00
2018-09-25T13:37:40.837Z,32.00
2018-09-25T13:39:49.605Z,33.00
2018-09-25T13:41:58.361Z,32.00
2018-09-25T13:44:07.080Z,29.30
2018-09-25T13:46:15.757Z,32.50
2018-09-25T13:48:24.710Z,30.90
2018-09-25T13:50:34.919Z,29.10
2018-09-25T13:52:43.684Z,28.10
2018-09-25T13:54:52.574Z,28.40
2018-09-25T13:57:01.252Z,29.50
2018-09-25T13:59:10.058Z,31.00
2018-09-25T14:01:18.974Z,31.80
2018-09-25T14:03:28.638Z,32.30
2018-09-25T14:05:37.375Z,32.30
2018-09-25T14:07:46.198Z,32.80
2018-09-25T14:09:55.001Z,32.10
2018-09-25T14:12:05.400Z,34.90
2018-09-25T14:14:14.924Z,33.40
2018-09-25T14:16:23.764Z,35.60
2018-09-25T14:18:33.958Z,33.30
2018-09-25T14:20:42.634Z,34.70
2018-09-25T14:22:51.399Z,35.10
2018-09-25T14:25:00.172Z,34.00
2018-09-25T14:27:08.787Z,33.50
2018-09-25T14:29:17.528Z,35.00
2018-09-25T14:31:28.727Z,33.00
2018-09-25T14:33:37.523Z,33.90
2018-09-25T14:35:46.433Z,34.20
2018-09-25T14:37:55.256Z,34.30
2018-09-25T14:40:05.216Z,33.60
2018-09-25T14:42:13.931Z,33.60
2018-09-25T14:44:22.699Z,31.80
2018-09-25T14:46:31.402Z,32.60
2018-09-25T14:48:40.188Z,31.90
2018-09-25T14:50:48.876Z,29.70
2018-09-25T14:52:57.663Z,31.20
2018-09-25T14:55:06.473Z,31.10
2018-09-25T14:57:15.268Z,31.00
2018-09-25T14:59:23.996Z,30.00
2018-09-25T15:01:34.374Z,30.10
2018-09-25T15:03:43.436Z,29.70
2018-09-25T15:05:52.253Z,30.90
2018-09-25T15:08:01.093Z,30.40
2018-09-25T15:10:09.839Z,30.00
2018-09-25T15:12:18.520Z,28.80
2018-09-25T15:14:27.327Z,28.80
2018-09-25T15:16:36.197Z,29.40
2018-09-25T15:18:45.017Z,30.00
2018-09-25T15:20:53.861Z,29.40
2018-09-25T15:23:04.267Z,28.40
2018-09-25T15:25:13.255Z,26.20
2018-09-25T15:27:22.134Z,27.70
2018-09-25T15:29:30.786Z,27.60
2018-09-25T15:31:39.406Z,27.30
2018-09-25T15:33:48.060Z,26.80
2018-09-25T15:35:57.897Z,27.20
2018-09-25T15:38:06.687Z,26.90
2018-09-25T15:40:15.539Z,26.30
2018-09-25T15:42:24.328Z,26.30
2018-09-25T15:44:34.959Z,25.60
2018-09-25T15:46:43.797Z,26.20
2018-09-25T15:48:52.693Z,26.10
2018-09-25T15:51:01.440Z,26.10
2018-09-25T15:53:10.380Z,25.20
2018-09-25T15:55:19.247Z,26.40
2018-09-25T15:57:27.948Z,25.90
2018-09-25T15:59:36.638Z,25.50
2018-09-25T16:01:45.450Z,25.80
2018-09-25T16:03:54.267Z,27.00
2018-09-25T16:06:04.137Z,27.70
2018-09-25T16:08:13.200Z,27.20
2018-09-25T16:10:22.020Z,27.10
2018-09-25T16:12:30.800Z,28.30
2018-09-25T16:14:39.572Z,28.30
2018-09-25T16:16:48.318Z,29.40
2018-09-25T16:18:57.724Z,30.00
2018-09-25T16:21:06.806Z,29.60
2018-09-25T16:23:15.664Z,31.10
2018-09-25T16:25:24.417Z,31.70
2018-09-25T16:27:34.412Z,31.40
2018-09-25T16:29:43.240Z,32.00
2018-09-25T16:31:51.988Z,31.60
2018-09-25T16:34:00.788Z,32.20
2018-09-25T16:36:09.617Z,32.00
2018-09-25T16:38:18.491Z,32.00
2018-09-25T16:40:27.277Z,32.40
2018-09-25T16:42:36.022Z,32.80
2018-09-25T16:44:44.883Z,32.70
2018-09-25T16:46:53.631Z,32.90
2018-09-25T16:49:02.459Z,33.80
2018-09-25T16:51:11.173Z,34.30
2018-09-25T16:53:19.869Z,33.70
2018-09-25T16:55:28.626Z,34.30
2018-09-25T16:57:37.607Z,34.70
2018-09-25T16:59:46.488Z,34.80
2018-09-25T17:01:55.411Z,35.80
2018-09-25T17:04:05.744Z,35.60
2018-09-25T17:06:14.481Z,37.40
2018-09-25T17:08:23.260Z,37.00
2018-09-25T17:10:32.116Z,37.20
2018-09-25T17:12:40.923Z,38.70
2018-09-25T17:14:49.651Z,38.40
2018-09-25T17:16:58.316Z,39.00
2018-09-25T17:19:07.051Z,39.50
2018-09-25T17:21:15.838Z,38.80
2018-09-25T17:23:24.608Z,37.80
2018-09-25T17:25:34.857Z,40.20
2018-09-25T17:27:43.591Z,41.00
2018-09-25T17:29:52.402Z,40.70
2018-09-25T17:32:01.107Z,42.00
2018-09-25T17:34:09.921Z,42.10
2018-09-25T17:36:18.632Z,42.60
2018-09-25T17:38:27.349Z,43.50
2018-09-25T17:40:36.443Z,43.50
2018-09-25T17:42:45.247Z,43.30
2018-09-25T17:44:54.194Z,42.90
2018-09-25T17:47:04.928Z,44.10
2018-09-25T17:49:13.809Z,43.80
2018-09-25T17:51:22.509Z,43.90
2018-09-25T17:53:31.364Z,44.20
2018-09-25T17:55:40.137Z,44.10
2018-09-25T17:57:48.820Z,44.40
2018-09-25T17:59:58.645Z,44.40
2018-09-25T18:02:07.412Z,44.60
2018-09-25T18:04:15.964Z,44.10
2018-09-25T18:06:24.806Z,44.10
2018-09-25T18:08:35.326Z,45.40
2018-09-25T18:10:44.128Z,45.40
2018-09-25T18:12:53.089Z,46.10
2018-09-25T18:15:01.863Z,45.70
2018-09-25T18:17:10.583Z,47.30
2018-09-25T18:19:19.534Z,46.90
2018-09-25T18:21:28.507Z,46.30
2018-09-25T18:23:37.268Z,47.10
2018-09-25T18:25:46.005Z,46.80
2018-09-25T18:27:55.000Z,46.90
2018-09-25T18:30:05.212Z,47.10
2018-09-25T18:32:13.906Z,49.40
2018-09-25T18:34:22.705Z,49.80
2018-09-25T18:36:31.584Z,49.80
2018-09-25T18:38:40.468Z,49.50
2018-09-25T18:40:49.286Z,50.30
2018-09-25T18:42:58.081Z,49.20
2018-09-25T18:45:07.072Z,49.40
2018-09-25T18:47:15.765Z,49.70
2018-09-25T18:49:24.678Z,49.80
2018-09-25T18:51:35.218Z,50.20
2018-09-25T18:53:44.097Z,50.30
2018-09-25T18:55:52.859Z,50.20
2018-09-25T18:58:02.235Z,50.80
2018-09-25T19:00:11.409Z,51.20
2018-09-25T19:02:21.016Z,50.60
2018-09-25T19:04:29.832Z,52.10
2018-09-25T19:06:38.502Z,51.90
2018-09-25T19:08:47.777Z,51.40
2018-09-25T19:10:57.678Z,51.40
2018-09-25T19:13:06.398Z,51.80
2018-09-25T19:15:15.829Z,52.10
2018-09-25T19:17:24.652Z,52.30
2018-09-25T19:19:35.108Z,52.80
2018-09-25T19:21:44.172Z,53.10
2018-09-25T19:23:52.892Z,53.10
2018-09-25T19:26:01.926Z,53.30
2018-09-25T19:28:10.763Z,53.50
2018-09-25T19:30:19.495Z,54.10
2018-09-25T19:32:28.184Z,54.50
2018-09-25T19:34:36.843Z,53.70
2018-09-25T19:36:45.796Z,54.50
2018-09-25T19:38:54.625Z,54.70
2018-09-25T19:41:04.681Z,55.60
2018-09-25T19:43:13.392Z,54.60
2018-09-25T19:45:22.196Z,56.70
2018-09-25T19:47:31.012Z,55.10
2018-09-25T19:49:39.943Z,56.00
2018-09-25T19:51:48.714Z,57.40
2018-09-25T19:53:57.484Z,56.30
2018-09-25T19:56:06.486Z,56.40
2018-09-25T19:58:15.224Z,56.20
2018-09-25T20:00:23.945Z,57.30
2018-09-25T20:02:34.748Z,58.40
2018-09-25T20:04:43.513Z,57.10
2018-09-25T20:06:52.434Z,57.70
2018-09-25T20:09:01.153Z,57.30
2018-09-25T20:11:10.189Z,58.00
2018-09-25T20:13:19.001Z,59.60
2018-09-25T20:15:27.872Z,59.50
2018-09-25T20:17:36.506Z,58.80
2018-09-25T20:19:45.393Z,57.80
2018-09-25T20:21:54.124Z,58.30
2018-09-25T20:24:04.770Z,58.20
2018-09-25T20:26:13.661Z,58.70
2018-09-25T20:28:22.514Z,58.30
2018-09-25T20:30:31.347Z,59.90
2018-09-25T20:32:40.225Z,58.30
2018-09-25T20:34:49.064Z,58.70
2018-09-25T20:36:57.866Z,58.70
2018-09-25T20:39:06.782Z,58.30
2018-09-25T20:41:15.723Z,57.90
2018-09-25T20:43:24.450Z,58.50
2018-09-25T20:45:34.981Z,58.70
2018-09-25T20:47:44.083Z,58.30
2018-09-25T20:49:52.800Z,60.80
2018-09-25T20:52:01.702Z,58.50
2018-09-25T20:54:10.615Z,59.10
2018-09-25T20:56:19.427Z,59.10
2018-09-25T20:58:28.239Z,58.40
2018-09-25T21:00:37.109Z,59.10
2018-09-25T21:02:45.995Z,59.60
2018-09-25T21:04:55.096Z,59.20
2018-09-25T21:07:05.558Z,59.80
2018-09-25T21:09:14.719Z,59.50
2018-09-25T21:11:23.460Z,60.40
2018-09-25T21:13:32.205Z,59.70
2018-09-25T21:15:41.090Z,60.50
2018-09-25T21:17:49.891Z,61.60
2018-09-25T21:19:58.672Z,61.20
2018-09-25T21:22:07.437Z,61.30
2018-09-25T21:24:16.223Z,60.60
2018-09-25T21:26:24.955Z,60.50
2018-09-25T21:28:35.520Z,59.40
2018-09-25T21:30:44.128Z,61.10
2018-09-25T21:32:53.323Z,60.30
2018-09-25T21:35:02.085Z,60.10
2018-09-25T21:37:10.744Z,59.60
2018-09-25T21:39:19.739Z,60.10
2018-09-25T21:41:28.388Z,59.40
2018-09-25T21:43:37.201Z,61.00
2018-09-25T21:45:46.083Z,60.10
2018-09-25T21:47:54.934Z,61.10
2018-09-25T21:50:05.166Z,59.80
2018-09-25T21:52:14.132Z,60.70
2018-09-25T21:54:22.999Z,61.10
2018-09-25T21:56:31.804Z,60.60
2018-09-25T21:58:40.759Z,60.30
2018-09-25T22:00:49.678Z,60.20
2018-09-25T22:02:58.437Z,60.40
2018-09-25T22:05:07.300Z,61.40
2018-09-25T22:07:15.920Z,61.40
2018-09-25T22:09:24.756Z,61.90
2018-09-25T22:11:34.557Z,62.30
2018-09-25T22:13:43.269Z,62.70
2018-09-25T22:15:52.176Z,62.30
2018-09-25T22:18:00.895Z,62.80
2018-09-25T22:20:09.669Z,62.40
2018-09-25T22:22:18.514Z,62.00
2018-09-25T22:24:27.217Z,62.60
2018-09-25T22:26:35.980Z,62.80
2018-09-25T22:28:44.830Z,62.80
2018-09-25T22:30:53.616Z,62.50
2018-09-25T22:33:02.431Z,63.00
2018-09-25T22:35:11.235Z,63.90
2018-09-25T22:37:19.986Z,64.70
2018-09-25T22:39:28.748Z,62.90
2018-09-25T22:41:37.399Z,62.90
2018-09-25T22:43:46.192Z,62.80
2018-09-25T22:45:55.350Z,63.10
2018-09-25T22:48:05.632Z,65.10
2018-09-25T22:50:14.509Z,64.70
2018-09-25T22:52:23.419Z,64.70
2018-09-25T22:54:32.341Z,65.50
2018-09-25T22:56:41.080Z,64.20
2018-09-25T22:58:50.205Z,63.60
2018-09-25T23:00:58.991Z,63.80
2018-09-25T23:03:07.742Z,63.40
2018-09-25T23:05:16.480Z,64.20
2018-09-25T23:07:25.221Z,64.80
2018-09-25T23:09:35.526Z,65.10
2018-09-25T23:11:44.368Z,64.70
2018-09-25T23:13:53.149Z,64.60
2018-09-25T23:16:01.848Z,64.00
2018-09-25T23:18:10.750Z,64.20
2018-09-25T23:20:19.508Z,64.80
2018-09-25T23:22:28.253Z,64.40
2018-09-25T23:24:37.043Z,64.00
2018-09-25T23:26:45.684Z,64.50
2018-09-25T23:28:54.516Z,64.90
2018-09-25T23:31:04.787Z,65.20
2018-09-25T23:33:13.678Z,63.60
2018-09-25T23:35:22.503Z,65.40
2018-09-25T23:37:31.280Z,65.40
2018-09-25T23:39:40.060Z,65.50
2018-09-25T23:41:48.774Z,65.90
2018-09-25T23:43:57.684Z,64.70
2018-09-25T23:46:38.475Z,66.90
2018-09-25T23:48:52.000Z,65.20
2018-09-25T23:51:03.571Z,66.40
2018-09-25T23:53:15.071Z,67.30
2018-09-25T23:55:22.744Z,65.30
2018-09-25T23:57:30.297Z,65.70
2018-09-25T23:59:42.371Z,66.40
